Flight Track Log - Related Links

Times and Time Zones

All times are in EDT time to prevent confusion due to time zone crossing. See the UAL3744 flight status page for this flight to view local times or setup timezone preferences in your user account.

Time Position Orientation Groundspeed Altitude Reporting Facility
EDT Latitude Longitude Course Direction KTS MPH feet Rate Location/Type
Wed 06:23:43 AM 33.0372 -79.9958 13° North 255 293 6,800  Level Jacksonville Center
Wed 06:24:00 AM 33.3225 -79.9054 23° Northeast  Level FlightAware Approximate
Wed 06:24:43 AM 33.1119 -79.9711 15° North 268 308 9,900  Level Jacksonville Center
Wed 06:25:00 AM 33.4313 -79.8704 North  Level FlightAware Approximate
Wed 06:25:43 AM 33.1928 -79.9511 12° North 275 316 12,300  Level Jacksonville Center
Wed 06:26:00 AM 33.5418 -79.8405 13° North  Level FlightAware Approximate
Wed 06:26:43 AM 33.2797 -79.9236 15° North 303 349 14,400  Level Jacksonville Center
Wed 06:27:00 AM 33.6425 -79.8117 13° North  Level FlightAware Approximate
Wed 06:27:43 AM 33.3772 -79.8953 14° North 330 380 16,500  Level Jacksonville Center
Wed 06:28:00 AM 33.7433 -79.7837 13° North  Level FlightAware Approximate
Wed 06:28:43 AM 33.4789 -79.8694 12° North 357 411 18,300  Level Jacksonville Center
Wed 06:29:43 AM 33.5803 -79.8411 13° North 368 423 20,400 1,900 Climbing Jacksonville Center
Wed 06:30:43 AM 33.6883 -79.8125 12° North 379 436 22,100 1,800 Climbing Jacksonville Center
Wed 06:31:43 AM 33.7981 -79.7836 12° North 391 450 24,000 1,750 Climbing Jacksonville Center
Wed 06:32:43 AM 33.9078 -79.7497 14° North 396 456 25,600 1,500 Climbing Jacksonville Center
Wed 06:33:43 AM 34.0219 -79.7181 13° North 401 461 27,000 1,350 Climbing Jacksonville Center
Wed 06:34:43 AM 34.1336 -79.6839 14° North 413 475 28,300 642 Climbing Jacksonville Center
Wed 06:36:50 AM 34.3764 -79.5853 19° North 432 497 29,000 225 Climbing Washington Center
Wed 06:37:50 AM 34.4892 -79.5225 25° Northeast 437 503 29,000  Level Washington Center
Wed 06:38:50 AM 34.5992 -79.4700 21° North 432 497 29,000  Level Washington Center
Wed 06:39:50 AM 34.7011 -79.4142 24° Northeast 413 475 29,000  Level Washington Center
Wed 06:40:50 AM 34.8053 -79.3583 24° Northeast 408 470 29,000  Level Washington Center
Wed 06:41:50 AM 34.9114 -79.3025 23° Northeast 403 464 29,000  Level Washington Center
Wed 06:42:50 AM 35.0217 -79.2442 23° Northeast 403 464 29,000  Level Washington Center
Wed 06:43:50 AM 35.1297 -79.1856 24° Northeast 408 470 29,000  Level Washington Center
Wed 06:44:50 AM 35.2358 -79.1292 23° Northeast 408 470 29,000  Level Washington Center
Wed 06:45:50 AM 35.3356 -79.0750 24° Northeast 418 481 29,000  Level Washington Center
Wed 06:46:50 AM 35.4519 -79.0139 23° Northeast 418 481 29,000 -400 Level Washington Center
Wed 06:47:50 AM 35.5578 -78.9597 23° Northeast 418 481 28,200 -950 Descending Washington Center
Wed 06:48:50 AM 35.6658 -78.9028 23° Northeast 418 481 27,100 -600 Descending Washington Center
Wed 06:49:50 AM 35.7719 -78.8433 24° Northeast 418 481 27,000 -50 Descending Washington Center
Wed 06:50:50 AM 35.8756 -78.7861 24° Northeast 413 475 27,000  Level Washington Center
Wed 06:51:50 AM 35.9794 -78.7286 24° Northeast 408 470 27,000  Level Washington Center
Wed 06:52:50 AM 36.0811 -78.6683 26° Northeast 403 464 27,000  Level Washington Center
Wed 06:53:50 AM 36.1933 -78.6058 24° Northeast 403 464 27,000  Level Washington Center
Wed 06:54:50 AM 36.2947 -78.5478 25° Northeast 403 464 27,000  Level Washington Center
Wed 06:55:50 AM 36.3986 -78.4897 24° Northeast 403 464 27,000  Level Washington Center
Wed 06:56:50 AM 36.5022 -78.4292 25° Northeast 403 464 27,000  Level Washington Center
Wed 06:57:50 AM 36.6058 -78.3708 24° Northeast 403 464 27,000  Level Washington Center
Wed 06:58:50 AM 36.6989 -78.3144 26° Northeast 403 464 27,000  Level Washington Center
Wed 06:59:50 AM 36.8089 -78.2508 25° Northeast 403 464 27,000  Level Washington Center
Wed 07:00:50 AM 36.9167 -78.1872 25° Northeast 409 471 27,000  Level Washington Center
Wed 07:01:50 AM 37.0264 -78.1231 25° Northeast 417 480 27,000 -550 Level Washington Center
Wed 07:02:50 AM 37.1342 -78.0617 24° Northeast 422 486 25,900 -1,100 Descending Washington Center
Wed 07:03:50 AM 37.2397 -77.9997 25° Northeast 422 486 24,800 -1,100 Descending Washington Center
Wed 07:04:50 AM 37.3431 -77.9378 25° Northeast 417 480 23,700 -1,100 Descending Washington Center
Wed 07:05:50 AM 37.4508 -77.8756 25° Northeast 417 480 22,600 -850 Descending Washington Center
Wed 07:06:50 AM 37.5519 -77.8158 25° Northeast 406 467 22,000 -500 Descending Washington Center
Wed 07:07:50 AM 37.6511 -77.7558 26° Northeast 400 460 21,600 -1,600 Descending Washington Center
Wed 07:08:50 AM 37.7522 -77.6983 24° Northeast 395 455 18,800 -2,700 Descending Washington Center
Wed 07:09:50 AM 37.8450 -77.6456 24° Northeast 384 442 16,200 -2,700 Descending Washington Center
Wed 07:10:50 AM 37.9356 -77.5900 26° Northeast 367 422 13,400 -2,900 Descending Washington Center
Wed 07:11:50 AM 38.0325 -77.5347 24° Northeast 351 404 10,400 -1,700 Descending Washington Center
Wed 07:12:50 AM 38.1125 -77.4867 25° Northeast 327 376 10,000 -300 Descending Washington Center
Wed 07:13:50 AM 38.1797 -77.4461 25° Northeast 292 336 9,800 -550 Descending Washington Center
Wed 07:14:50 AM 38.2492 -77.4056 25° Northeast 274 315 8,900 -942 Descending Washington Center
Wed 07:15:51 AM 38.3219 -77.4153 354° North 260 299 7,900 -950 Descending Washington Center
Wed 07:16:50 AM 38.3925 -77.4381 346° North 255 293 7,000 -908 Descending Washington Center
Wed 07:17:50 AM 38.4656 -77.4453 356° North 255 293 6,100 -900 Descending Washington Center
Wed 07:18:50 AM 38.5364 -77.4442 North 255 293 5,200 -800 Descending Washington Center
Wed 07:19:50 AM 38.5969 -77.4431 North 244 281 4,500 -874 Descending Washington Center
Wed 07:20:33 AM 38.6500 -77.4333 North 216 249 3,700 -874 Descending Potomac TRACON
Wed 07:21:33 AM 38.7000 -77.4333 360° North 211 243 3,000 -368 Descending Potomac TRACON
Wed 07:22:27 AM 38.7500 -77.4333 360° North 189 217 3,000 -150 Level Potomac TRACON
Wed 07:23:33 AM 38.8167 -77.4333 360° North 193 222 2,700 -273 Descending Potomac TRACON

Login

Don't have an account? Register now (free) for customized features, flight alerts, and more!